sensor_id;sensor_type;location;lat;lon;timestamp;pressure;altitude;pressure_sealevel;temperature;humidity
65897;BME280;52677;50.898;10.854;2023-08-24T00:00:00;98820.22;;;14.81;100.00
65897;BME280;52677;50.898;10.854;2023-08-24T00:02:01;98813.47;;;14.78;100.00
65897;BME280;52677;50.898;10.854;2023-08-24T00:04:02;98809.91;;;14.81;100.00
65897;BME280;52677;50.898;10.854;2023-08-24T00:06:02;98817.06;;;14.79;100.00
65897;BME280;52677;50.898;10.854;2023-08-24T00:08:04;98812.69;;;14.74;100.00
65897;BME280;52677;50.898;10.854;2023-08-24T00:10:05;98810.28;;;14.76;100.00
65897;BME280;52677;50.898;10.854;2023-08-24T00:12:06;98812.69;;;14.78;100.00
65897;BME280;52677;50.898;10.854;2023-08-24T00:14:06;98812.69;;;14.78;100.00
65897;BME280;52677;50.898;10.854;2023-08-24T00:16:07;98817.44;;;14.77;100.00
65897;BME280;52677;50.898;10.854;2023-08-24T00:18:07;98814.25;;;14.72;100.00
65897;BME280;52677;50.898;10.854;2023-08-24T00:20:08;98811.50;;;14.65;100.00
65897;BME280;52677;50.898;10.854;2023-08-24T00:22:10;98811.47;;;14.61;100.00
65897;BME280;52677;50.898;10.854;2023-08-24T00:24:11;98809.06;;;14.56;100.00
65897;BME280;52677;50.898;10.854;2023-08-24T00:26:11;98814.63;;;14.45;100.00
65897;BME280;52677;50.898;10.854;2023-08-24T00:28:11;98818.59;;;14.41;100.00
65897;BME280;52677;50.898;10.854;2023-08-24T00:30:12;98811.41;;;14.40;100.00
65897;BME280;52677;50.898;10.854;2023-08-24T00:32:12;98806.25;;;14.38;100.00
65897;BME280;52677;50.898;10.854;2023-08-24T00:34:13;98807.84;;;14.39;100.00
65897;BME280;52677;50.898;10.854;2023-08-24T00:36:13;98804.66;;;14.37;100.00
65897;BME280;52677;50.898;10.854;2023-08-24T00:38:13;98811.03;;;14.41;100.00
65897;BME280;52677;50.898;10.854;2023-08-24T00:40:14;98805.06;;;14.39;100.00
65897;BME280;52677;50.898;10.854;2023-08-24T00:42:14;98800.69;;;14.34;100.00
65897;BME280;52677;50.898;10.854;2023-08-24T00:44:15;98799.09;;;14.26;100.00
65897;BME280;52677;50.898;10.854;2023-08-24T00:46:15;98801.84;;;14.23;100.00
65897;BME280;52677;50.898;10.854;2023-08-24T00:48:16;98801.06;;;14.19;100.00
65897;BME280;52677;50.898;10.854;2023-08-24T00:50:17;98797.47;;;14.18;100.00
65897;BME280;52677;50.898;10.854;2023-08-24T00:52:18;98797.47;;;14.18;100.00
65897;BME280;52677;50.898;10.854;2023-08-24T00:54:19;98795.50;;;14.19;100.00
65897;BME280;52677;50.898;10.854;2023-08-24T00:56:19;98789.53;;;14.20;100.00
65897;BME280;52677;50.898;10.854;2023-08-24T00:58:26;98793.09;;;14.21;100.00
65897;BME280;52677;50.898;10.854;2023-08-24T01:00:27;98783.97;;;14.17;100.00
65897;BME280;52677;50.898;10.854;2023-08-24T01:02:28;98791.13;;;14.18;100.00
65897;BME280;52677;50.898;10.854;2023-08-24T01:04:28;98784.34;;;14.19;100.00
65897;BME280;52677;50.898;10.854;2023-08-24T01:06:29;98782.38;;;14.23;100.00
65897;BME280;52677;50.898;10.854;2023-08-24T01:08:29;98778.78;;;14.22;100.00
65897;BME280;52677;50.898;10.854;2023-08-24T01:10:44;98778.41;;;14.24;100.00
65897;BME280;52677;50.898;10.854;2023-08-24T01:12:57;98779.22;;;14.24;100.00
65897;BME280;52677;50.898;10.854;2023-08-24T01:15:20;98791.50;;;14.20;100.00
65897;BME280;52677;50.898;10.854;2023-08-24T01:17:27;98783.16;;;14.13;100.00
65897;BME280;52677;50.898;10.854;2023-08-24T01:19:58;98780.75;;;14.08;100.00
65897;BME280;52677;50.898;10.854;2023-08-24T01:22:01;98779.53;;;13.98;100.00
65897;BME280;52677;50.898;10.854;2023-08-24T01:24:17;98778.31;;;13.85;100.00
65897;BME280;52677;50.898;10.854;2023-08-24T01:26:20;98782.66;;;13.78;100.00
65897;BME280;52677;50.898;10.854;2023-08-24T01:28:21;98781.44;;;13.72;100.00
65897;BME280;52677;50.898;10.854;2023-08-24T01:30:22;98784.22;;;13.69;100.00
65897;BME280;52677;50.898;10.854;2023-08-24T01:32:23;98782.22;;;13.73;100.00
65897;BME280;52677;50.898;10.854;2023-08-24T01:34:23;98780.25;;;13.70;100.00
65897;BME280;52677;50.898;10.854;2023-08-24T01:36:23;98767.91;;;13.64;100.00
65897;BME280;52677;50.898;10.854;2023-08-24T01:38:25;98778.22;;;13.63;100.00
65897;BME280;52677;50.898;10.854;2023-08-24T01:43:13;98773.47;;;13.60;100.00
65897;BME280;52677;50.898;10.854;2023-08-24T01:45:08;98766.31;;;13.59;100.00
65897;BME280;52677;50.898;10.854;2023-08-24T01:47:10;98771.47;;;13.61;100.00
65897;BME280;52677;50.898;10.854;2023-08-24T01:49:13;98770.28;;;13.58;100.00
65897;BME280;52677;50.898;10.854;2023-08-24T01:51:14;98773.06;;;13.58;100.00
65897;BME280;52677;50.898;10.854;2023-08-24T01:53:16;98767.06;;;13.56;100.00
65897;BME280;52677;50.898;10.854;2023-08-24T01:55:20;98765.47;;;13.52;100.00
65897;BME280;52677;50.898;10.854;2023-08-24T01:57:20;98769.44;;;13.51;100.00
65897;BME280;52677;50.898;10.854;2023-08-24T01:59:21;98761.09;;;13.51;100.00
65897;BME280;52677;50.898;10.854;2023-08-24T02:01:21;98766.25;;;13.48;100.00
65897;BME280;52677;50.898;10.854;2023-08-24T02:03:21;98762.66;;;13.48;100.00
65897;BME280;52677;50.898;10.854;2023-08-24T02:05:22;98754.31;;;13.41;100.00
65897;BME280;52677;50.898;10.854;2023-08-24T02:07:24;98750.72;;;13.40;100.00
65897;BME280;52677;50.898;10.854;2023-08-24T02:09:24;98753.09;;;13.38;100.00
65897;BME280;52677;50.898;10.854;2023-08-24T02:11:25;98742.38;;;13.40;100.00
65897;BME280;52677;50.898;10.854;2023-08-24T02:13:25;98746.78;;;13.45;100.00
65897;BME280;52677;50.898;10.854;2023-08-24T02:15:26;98743.22;;;13.44;100.00
65897;BME280;52677;50.898;10.854;2023-08-24T02:17:26;98746.78;;;13.41;100.00
65897;BME280;52677;50.898;10.854;2023-08-24T02:19:27;98749.13;;;13.36;100.00
65897;BME280;52677;50.898;10.854;2023-08-24T02:21:27;98754.69;;;13.32;100.00
65897;BME280;52677;50.898;10.854;2023-08-24T02:23:27;98753.06;;;13.28;100.00
65897;BME280;52677;50.898;10.854;2023-08-24T02:25:28;98754.25;;;13.27;100.00
65897;BME280;52677;50.898;10.854;2023-08-24T02:27:28;98755.84;;;13.31;100.00
65897;BME280;52677;50.898;10.854;2023-08-24T02:29:29;98749.47;;;13.27;100.00
65897;BME280;52677;50.898;10.854;2023-08-24T02:31:30;98751.06;;;13.25;100.00
65897;BME280;52677;50.898;10.854;2023-08-24T02:33:31;98760.16;;;13.21;100.00
65897;BME280;52677;50.898;10.854;2023-08-24T02:35:31;98755.75;;;13.17;100.00
65897;BME280;52677;50.898;10.854;2023-08-24T02:37:32;98750.94;;;13.10;100.00
65897;BME280;52677;50.898;10.854;2023-08-24T02:39:32;98755.31;;;13.08;100.00
65897;BME280;52677;50.898;10.854;2023-08-24T02:41:34;98748.13;;;13.07;100.00
65897;BME280;52677;50.898;10.854;2023-08-24T02:43:34;98755.31;;;13.08;100.00
65897;BME280;52677;50.898;10.854;2023-08-24T02:45:34;98748.13;;;13.03;100.00
65897;BME280;52677;50.898;10.854;2023-08-24T02:47:35;98748.91;;;13.00;100.00
65897;BME280;52677;50.898;10.854;2023-08-24T02:49:36;98746.94;;;13.01;100.00
65897;BME280;52677;50.898;10.854;2023-08-24T02:51:37;98741.34;;;12.93;100.00
65897;BME280;52677;50.898;10.854;2023-08-24T02:53:38;98744.09;;;12.93;100.00
65897;BME280;52677;50.898;10.854;2023-08-24T02:55:39;98747.25;;;12.88;100.00
65897;BME280;52677;50.898;10.854;2023-08-24T02:57:39;98735.72;;;12.83;100.00
65897;BME280;52677;50.898;10.854;2023-08-24T02:59:39;98742.03;;;12.80;100.00
65897;BME280;52677;50.898;10.854;2023-08-24T03:01:43;98743.19;;;12.75;100.00
65897;BME280;52677;50.898;10.854;2023-08-24T03:03:43;98738.78;;;12.71;100.00
65897;BME280;52677;50.898;10.854;2023-08-24T03:05:58;98750.63;;;12.64;100.00
65897;BME280;52677;50.898;10.854;2023-08-24T03:07:59;98735.53;;;12.58;100.00
65897;BME280;52677;50.898;10.854;2023-08-24T03:09:59;98738.31;;;12.58;100.00
65897;BME280;52677;50.898;10.854;2023-08-24T03:11:59;98744.22;;;12.56;100.00
65897;BME280;52677;50.898;10.854;2023-08-24T03:14:00;98741.41;;;12.49;100.00
65897;BME280;52677;50.898;10.854;2023-08-24T03:16:03;98741.75;;;12.44;100.00
65897;BME280;52677;50.898;10.854;2023-08-24T03:18:04;98744.94;;;12.46;100.00
65897;BME280;52677;50.898;10.854;2023-08-24T03:20:05;98730.63;;;12.41;100.00
65897;BME280;52677;50.898;10.854;2023-08-24T03:22:05;98735.00;;;12.42;100.00
65897;BME280;52677;50.898;10.854;2023-08-24T03:24:06;98746.13;;;12.42;100.00
65897;BME280;52677;50.898;10.854;2023-08-24T03:26:06;98733.84;;;12.43;100.00
65897;BME280;52677;50.898;10.854;2023-08-24T03:28:08;98741.72;;;12.41;100.00
65897;BME280;52677;50.898;10.854;2023-08-24T03:30:09;98754.06;;;12.43;100.00
65897;BME280;52677;50.898;10.854;2023-08-24T03:32:09;98734.59;;;12.40;100.00
65897;BME280;52677;50.898;10.854;2023-08-24T03:34:09;98739.78;;;12.45;100.00
65897;BME280;52677;50.898;10.854;2023-08-24T03:36:10;98733.47;;;12.48;100.00
65897;BME280;52677;50.898;10.854;2023-08-24T03:38:10;98741.03;;;12.51;100.00
65897;BME280;52677;50.898;10.854;2023-08-24T03:40:12;98734.69;;;12.50;100.00
65897;BME280;52677;50.898;10.854;2023-08-24T03:42:12;98734.31;;;12.55;100.00
65897;BME280;52677;50.898;10.854;2023-08-24T03:44:12;98736.75;;;12.60;100.00
65897;BME280;52677;50.898;10.854;2023-08-24T03:46:13;98743.47;;;12.59;100.00
65897;BME280;52677;50.898;10.854;2023-08-24T03:48:13;98738.69;;;12.56;100.00
65897;BME280;52677;50.898;10.854;2023-08-24T03:50:14;98738.25;;;12.51;100.00
65897;BME280;52677;50.898;10.854;2023-08-24T03:52:14;98738.59;;;12.46;100.00
65897;BME280;52677;50.898;10.854;2023-08-24T03:54:14;98744.94;;;12.43;100.00
65897;BME280;52677;50.898;10.854;2023-08-24T03:56:15;98745.28;;;12.41;100.00
65897;BME280;52677;50.898;10.854;2023-08-24T03:58:15;98738.53;;;12.38;100.00
65897;BME280;52677;50.898;10.854;2023-08-24T04:00:16;98744.88;;;12.35;100.00
65897;BME280;52677;50.898;10.854;2023-08-24T04:02:17;98740.50;;;12.34;100.00
65897;BME280;52677;50.898;10.854;2023-08-24T04:04:17;98746.06;;;12.34;100.00
65897;BME280;52677;50.898;10.854;2023-08-24T04:06:18;98746.00;;;12.31;100.00
65897;BME280;52677;50.898;10.854;2023-08-24T04:08:19;98744.81;;;12.28;100.00
65897;BME280;52677;50.898;10.854;2023-08-24T04:10:20;98746.38;;;12.29;100.00
65897;BME280;52677;50.898;10.854;2023-08-24T04:12:20;98730.13;;;12.28;100.00
65897;BME280;52677;50.898;10.854;2023-08-24T04:14:20;98746.38;;;12.29;100.00
65897;BME280;52677;50.898;10.854;2023-08-24T04:16:21;98749.97;;;12.30;100.00
65897;BME280;52677;50.898;10.854;2023-08-24T04:18:21;98746.00;;;12.31;100.00
65897;BME280;52677;50.898;10.854;2023-08-24T04:20:22;98752.34;;;12.31;100.00
65897;BME280;52677;50.898;10.854;2023-08-24T04:22:22;98753.09;;;12.25;100.00
65897;BME280;52677;50.898;10.854;2023-08-24T04:24:22;98761.44;;;12.25;100.00
65897;BME280;52677;50.898;10.854;2023-08-24T04:26:25;98750.31;;;12.25;100.00
65897;BME280;52677;50.898;10.854;2023-08-24T04:28:25;98764.56;;;12.23;100.00
65897;BME280;52677;50.898;10.854;2023-08-24T04:30:26;98759.38;;;12.18;100.00
65897;BME280;52677;50.898;10.854;2023-08-24T04:32:27;98765.00;;;12.25;100.00
65897;BME280;52677;50.898;10.854;2023-08-24T04:34:28;98765.00;;;12.29;100.00
65897;BME280;52677;50.898;10.854;2023-08-24T04:36:28;98766.66;;;12.33;100.00
65897;BME280;52677;50.898;10.854;2023-08-24T04:38:28;98754.78;;;12.36;100.00
65897;BME280;52677;50.898;10.854;2023-08-24T04:40:29;98754.00;;;12.40;100.00
65897;BME280;52677;50.898;10.854;2023-08-24T04:42:29;98757.56;;;12.36;100.00
65897;BME280;52677;50.898;10.854;2023-08-24T04:44:30;98763.13;;;12.40;100.00
65897;BME280;52677;50.898;10.854;2023-08-24T04:46:30;98750.41;;;12.35;100.00
65897;BME280;52677;50.898;10.854;2023-08-24T04:48:30;98748.38;;;12.32;100.00
65897;BME280;52677;50.898;10.854;2023-08-24T04:50:34;98753.53;;;12.30;100.00
65897;BME280;52677;50.898;10.854;2023-08-24T04:52:35;98749.22;;;12.36;100.00
65897;BME280;52677;50.898;10.854;2023-08-24T04:54:35;98753.56;;;12.34;100.00
65897;BME280;52677;50.898;10.854;2023-08-24T04:56:36;98750.00;;;12.33;100.00
65897;BME280;52677;50.898;10.854;2023-08-24T04:58:36;98746.47;;;12.36;100.00
65897;BME280;52677;50.898;10.854;2023-08-24T05:00:37;98744.50;;;12.41;100.00
65897;BME280;52677;50.898;10.854;2023-08-24T05:02:38;98752.06;;;12.44;100.00
65897;BME280;52677;50.898;10.854;2023-08-24T05:04:38;98742.97;;;12.47;100.00
65897;BME280;52677;50.898;10.854;2023-08-24T05:06:39;98744.59;;;12.51;100.00
65897;BME280;52677;50.898;10.854;2023-08-24T05:08:39;98747.41;;;12.55;100.00
65897;BME280;52677;50.898;10.854;2023-08-24T05:10:40;98738.69;;;12.56;100.00
65897;BME280;52677;50.898;10.854;2023-08-24T05:12:41;98750.63;;;12.64;100.00
65897;BME280;52677;50.898;10.854;2023-08-24T05:14:41;98738.78;;;12.67;100.00
65897;BME280;52677;50.898;10.854;2023-08-24T05:16:41;98747.97;;;12.78;100.00
65897;BME280;52677;50.898;10.854;2023-08-24T05:18:42;98751.56;;;12.82;100.00
65897;BME280;52677;50.898;10.854;2023-08-24T05:20:42;98753.97;;;12.87;100.00
65897;BME280;52677;50.898;10.854;2023-08-24T05:22:43;98757.59;;;12.91;100.00
65897;BME280;52677;50.898;10.854;2023-08-24T05:24:43;98763.56;;;12.97;100.00
65897;BME280;52677;50.898;10.854;2023-08-24T05:26:43;98757.25;;;13.04;100.00
65897;BME280;52677;50.898;10.854;2023-08-24T05:28:44;98752.13;;;13.09;100.00
65897;BME280;52677;50.898;10.854;2023-08-24T05:30:44;98757.34;;;13.18;100.00
65897;BME280;52677;50.898;10.854;2023-08-24T05:32:44;98747.84;;;13.23;100.00
65897;BME280;52677;50.898;10.854;2023-08-24T05:34:45;98733.22;;;13.29;100.00
65897;BME280;52677;50.898;10.854;2023-08-24T05:36:46;98725.69;;;13.37;100.00
65897;BME280;52677;50.898;10.854;2023-08-24T05:38:46;98732.09;;;13.44;100.00
65897;BME280;52677;50.898;10.854;2023-08-24T05:40:48;98734.50;;;13.49;100.00
65897;BME280;52677;50.898;10.854;2023-08-24T05:42:48;98735.34;;;13.57;100.00
65897;BME280;52677;50.898;10.854;2023-08-24T05:44:49;98721.03;;;13.62;100.00
65897;BME280;52677;50.898;10.854;2023-08-24T05:46:49;98718.69;;;13.68;100.00
65897;BME280;52677;50.898;10.854;2023-08-24T05:48:49;98728.59;;;13.72;100.00
65897;BME280;52677;50.898;10.854;2023-08-24T05:50:50;98736.97;;;13.76;100.00
65897;BME280;52677;50.898;10.854;2023-08-24T05:52:50;98737.38;;;13.82;100.00
65897;BME280;52677;50.898;10.854;2023-08-24T05:54:50;98738.19;;;13.86;100.00
65897;BME280;52677;50.898;10.854;2023-08-24T05:56:51;98735.44;;;13.93;100.00
65897;BME280;52677;50.898;10.854;2023-08-24T05:58:51;98733.06;;;13.98;100.00
65897;BME280;52677;50.898;10.854;2023-08-24T06:00:58;98731.47;;;14.04;100.00
65897;BME280;52677;50.898;10.854;2023-08-24T06:02:59;98720.34;;;14.12;100.00
65897;BME280;52677;50.898;10.854;2023-08-24T06:04:59;98723.13;;;14.19;100.00
65897;BME280;52677;50.898;10.854;2023-08-24T06:06:59;98717.19;;;14.27;100.00
65897;BME280;52677;50.898;10.854;2023-08-24T06:09:00;98709.63;;;14.35;100.00
65897;BME280;52677;50.898;10.854;2023-08-24T06:11:00;98721.97;;;14.41;100.00
65897;BME280;52677;50.898;10.854;2023-08-24T06:13:01;98729.53;;;14.51;100.00
65897;BME280;52677;50.898;10.854;2023-08-24T06:15:01;98736.69;;;14.59;100.00
65897;BME280;52677;50.898;10.854;2023-08-24T06:17:04;98737.50;;;14.67;100.00
65897;BME280;52677;50.898;10.854;2023-08-24T06:19:05;98744.66;;;14.75;100.00
65897;BME280;52677;50.898;10.854;2023-08-24T06:21:05;98737.88;;;14.83;100.00
65897;BME280;52677;50.898;10.854;2023-08-24T06:23:05;98744.22;;;14.91;100.00
65897;BME280;52677;50.898;10.854;2023-08-24T06:25:08;98741.81;;;15.00;100.00
65897;BME280;52677;50.898;10.854;2023-08-24T06:27:09;98740.22;;;15.10;100.00
65897;BME280;52677;50.898;10.854;2023-08-24T06:29:09;98746.13;;;15.26;100.00
65897;BME280;52677;50.898;10.854;2023-08-24T06:31:09;98746.91;;;15.34;100.00
65897;BME280;52677;50.898;10.854;2023-08-24T06:33:10;98747.28;;;15.43;100.00
65897;BME280;52677;50.898;10.854;2023-08-24T06:35:13;98743.25;;;15.51;100.00
65897;BME280;52677;50.898;10.854;2023-08-24T06:37:14;98739.25;;;15.66;100.00
65897;BME280;52677;50.898;10.854;2023-08-24T06:39:15;98739.16;;;15.84;100.00
65897;BME280;52677;50.898;10.854;2023-08-24T06:41:15;98745.03;;;15.97;100.00
65897;BME280;52677;50.898;10.854;2023-08-24T06:43:16;98748.19;;;16.06;100.00
65897;BME280;52677;50.898;10.854;2023-08-24T06:45:16;98748.53;;;16.12;100.00
65897;BME280;52677;50.898;10.854;2023-08-24T06:47:18;98746.53;;;16.16;100.00
65897;BME280;52677;50.898;10.854;2023-08-24T06:49:18;98742.91;;;16.19;100.00
65897;BME280;52677;50.898;10.854;2023-08-24T06:51:20;98752.09;;;16.19;100.00
65897;BME280;52677;50.898;10.854;2023-08-24T06:53:20;98748.88;;;16.21;100.00
65897;BME280;52677;50.898;10.854;2023-08-24T06:55:20;98749.19;;;16.34;100.00
65897;BME280;52677;50.898;10.854;2023-08-24T06:57:21;98747.09;;;16.45;100.00
65897;BME280;52677;50.898;10.854;2023-08-24T06:59:22;98745.41;;;16.58;100.00
65897;BME280;52677;50.898;10.854;2023-08-24T07:01:22;98734.97;;;16.69;100.00
65897;BME280;52677;50.898;10.854;2023-08-24T07:03:23;98742.84;;;16.81;100.00
65897;BME280;52677;50.898;10.854;2023-08-24T07:05:24;98734.72;;;16.94;100.00
65897;BME280;52677;50.898;10.854;2023-08-24T07:07:24;98733.03;;;17.04;100.00
65897;BME280;52677;50.898;10.854;2023-08-24T07:09:25;98727.66;;;17.20;100.00
65897;BME280;52677;50.898;10.854;2023-08-24T07:11:27;98721.50;;;17.36;100.00
65897;BME280;52677;50.898;10.854;2023-08-24T07:13:28;98721.66;;;17.56;100.00
65897;BME280;52677;50.898;10.854;2023-08-24T07:15:28;98729.06;;;17.73;100.00
65897;BME280;52677;50.898;10.854;2023-08-24T07:17:29;98715.81;;;17.77;100.00
65897;BME280;52677;50.898;10.854;2023-08-24T07:19:29;98718.84;;;17.90;100.00
65897;BME280;52677;50.898;10.854;2023-08-24T07:21:29;98721.16;;;17.95;100.00
65897;BME280;52677;50.898;10.854;2023-08-24T07:23:30;98719.53;;;17.98;100.00
65897;BME280;52677;50.898;10.854;2023-08-24T07:25:31;98731.47;;;18.02;100.00
65897;BME280;52677;50.898;10.854;2023-08-24T07:27:32;98735.38;;;18.08;100.00
65897;BME280;52677;50.898;10.854;2023-08-24T07:29:32;98737.72;;;18.13;100.00
65897;BME280;52677;50.898;10.854;2023-08-24T07:31:33;98732.06;;;18.16;100.00
65897;BME280;52677;50.898;10.854;2023-08-24T07:33:33;98727.56;;;18.22;100.00
65897;BME280;52677;50.898;10.854;2023-08-24T07:35:33;98719.78;;;18.34;100.00
65897;BME280;52677;50.898;10.854;2023-08-24T07:37:34;98731.91;;;18.50;100.00
65897;BME280;52677;50.898;10.854;2023-08-24T07:39:34;98724.94;;;18.62;100.00
65897;BME280;52677;50.898;10.854;2023-08-24T07:41:34;98721.66;;;18.67;100.00
65897;BME280;52677;50.898;10.854;2023-08-24T07:43:35;98723.88;;;18.79;100.00
65897;BME280;52677;50.898;10.854;2023-08-24T07:45:35;98730.13;;;18.87;100.00
65897;BME280;52677;50.898;10.854;2023-08-24T07:47:36;98722.78;;;18.93;100.00
65897;BME280;52677;50.898;10.854;2023-08-24T07:49:36;98721.88;;;19.00;100.00
65897;BME280;52677;50.898;10.854;2023-08-24T07:51:36;98726.88;;;19.12;100.00
65897;BME280;52677;50.898;10.854;2023-08-24T07:53:37;98731.97;;;19.17;100.00
65897;BME280;52677;50.898;10.854;2023-08-24T07:55:37;98731.25;;;19.33;100.00
65897;BME280;52677;50.898;10.854;2023-08-24T07:57:38;98720.19;;;19.46;100.00
65897;BME280;52677;50.898;10.854;2023-08-24T07:59:38;98728.34;;;19.60;100.00
65897;BME280;52677;50.898;10.854;2023-08-24T08:01:38;98729.28;;;19.73;100.00
65897;BME280;52677;50.898;10.854;2023-08-24T08:03:39;98726.31;;;19.80;100.00
65897;BME280;52677;50.898;10.854;2023-08-24T08:05:40;98727.91;;;19.81;100.00
65897;BME280;52677;50.898;10.854;2023-08-24T08:07:40;98719.91;;;19.80;100.00
65897;BME280;52677;50.898;10.854;2023-08-24T08:09:42;98720.69;;;19.80;100.00
65897;BME280;52677;50.898;10.854;2023-08-24T08:11:43;98719.03;;;19.83;100.00
65897;BME280;52677;50.898;10.854;2023-08-24T08:13:43;98722.03;;;19.92;100.00
65897;BME280;52677;50.898;10.854;2023-08-24T08:15:44;98722.31;;;19.98;100.00
65897;BME280;52677;50.898;10.854;2023-08-24T08:17:44;98712.31;;;19.97;100.00
65897;BME280;52677;50.898;10.854;2023-08-24T08:19:44;98714.34;;;19.96;100.00
65897;BME280;52677;50.898;10.854;2023-08-24T08:21:45;98710.44;;;19.90;100.00
65897;BME280;52677;50.898;10.854;2023-08-24T08:23:45;98704.84;;;19.90;100.00
65897;BME280;52677;50.898;10.854;2023-08-24T08:25:46;98710.53;;;19.86;100.00
65897;BME280;52677;50.898;10.854;2023-08-24T08:27:46;98714.94;;;19.87;100.00
65897;BME280;52677;50.898;10.854;2023-08-24T08:29:47;98714.56;;;19.85;100.00
65897;BME280;52677;50.898;10.854;2023-08-24T08:31:48;98707.81;;;19.83;100.00
65897;BME280;52677;50.898;10.854;2023-08-24T08:33:49;98711.03;;;19.81;100.00
65897;BME280;52677;50.898;10.854;2023-08-24T08:35:49;98710.31;;;19.77;100.00
65897;BME280;52677;50.898;10.854;2023-08-24T08:37:49;98707.50;;;19.77;100.00
65897;BME280;52677;50.898;10.854;2023-08-24T08:39:50;98705.94;;;19.76;100.00
65897;BME280;52677;50.898;10.854;2023-08-24T08:41:50;98696.72;;;19.76;100.00
65897;BME280;52677;50.898;10.854;2023-08-24T08:43:51;98688.25;;;19.79;100.00
65897;BME280;52677;50.898;10.854;2023-08-24T08:45:52;98679.72;;;19.83;100.00
65897;BME280;52677;50.898;10.854;2023-08-24T08:47:56;98662.03;;;19.86;100.00
65897;BME280;52677;50.898;10.854;2023-08-24T08:49:58;98660.69;;;19.90;100.00
65897;BME280;52677;50.898;10.854;2023-08-24T08:51:58;98659.03;;;19.93;100.00
65897;BME280;52677;50.898;10.854;2023-08-24T08:53:59;98659.75;;;19.97;100.00
65897;BME280;52677;50.898;10.854;2023-08-24T08:56:00;98645.25;;;19.99;100.00
65897;BME280;52677;50.898;10.854;2023-08-24T08:58:05;98640.78;;;20.01;100.00
65897;BME280;52677;50.898;10.854;2023-08-24T09:00:06;98635.59;;;20.00;100.00
65897;BME280;52677;50.898;10.854;2023-08-24T09:02:14;98642.28;;;20.06;100.00
65897;BME280;52677;50.898;10.854;2023-08-24T09:04:16;98649.38;;;20.10;100.00
65897;BME280;52677;50.898;10.854;2023-08-24T09:06:17;98639.22;;;20.16;100.00
65897;BME280;52677;50.898;10.854;2023-08-24T09:08:18;98636.94;;;20.28;100.00
65897;BME280;52677;50.898;10.854;2023-08-24T09:10:18;98631.06;;;20.38;100.00
65897;BME280;52677;50.898;10.854;2023-08-24T09:12:19;98628.78;;;20.50;100.00
65897;BME280;52677;50.898;10.854;2023-08-24T09:14:19;98616.91;;;20.58;100.00
65897;BME280;52677;50.898;10.854;2023-08-24T09:16:20;98616.28;;;20.67;100.00
65897;BME280;52677;50.898;10.854;2023-08-24T09:18:20;98604.38;;;20.75;100.00
65897;BME280;52677;50.898;10.854;2023-08-24T09:20:21;98595.75;;;20.83;100.00
65897;BME280;52677;50.898;10.854;2023-08-24T09:22:22;98598.72;;;20.92;100.00
65897;BME280;52677;50.898;10.854;2023-08-24T09:24:29;98582.09;;;20.97;100.00
65897;BME280;52677;50.898;10.854;2023-08-24T09:26:35;98583.00;;;21.07;100.00
65897;BME280;52677;50.898;10.854;2023-08-24T09:28:37;98576.72;;;21.16;100.00
65897;BME280;52677;50.898;10.854;2023-08-24T09:30:39;98570.78;;;21.26;100.00
65897;BME280;52677;50.898;10.854;2023-08-24T09:32:40;98579.59;;;21.41;100.00
65897;BME280;52677;50.898;10.854;2023-08-24T09:34:41;98568.69;;;21.56;100.00
65897;BME280;52677;50.898;10.854;2023-08-24T09:36:41;98562.31;;;21.68;100.00
65897;BME280;52677;50.898;10.854;2023-08-24T09:38:47;98572.97;;;21.86;100.00
65897;BME280;52677;50.898;10.854;2023-08-24T09:40:53;98568.09;;;21.99;100.00
65897;BME280;52677;50.898;10.854;2023-08-24T09:42:54;98568.22;;;22.08;100.00
65897;BME280;52677;50.898;10.854;2023-08-24T09:44:54;98561.56;;;22.15;100.00
65897;BME280;52677;50.898;10.854;2023-08-24T09:46:55;98572.59;;;22.22;100.00
65897;BME280;52677;50.898;10.854;2023-08-24T09:48:55;98565.25;;;22.25;100.00
65897;BME280;52677;50.898;10.854;2023-08-24T09:51:01;98558.84;;;22.24;100.00
65897;BME280;52677;50.898;10.854;2023-08-24T09:53:03;98560.09;;;22.23;100.00
65897;BME280;52677;50.898;10.854;2023-08-24T09:55:04;98563.38;;;22.22;100.00
65897;BME280;52677;50.898;10.854;2023-08-24T09:57:09;98559.44;;;22.19;100.00
65897;BME280;52677;50.898;10.854;2023-08-24T09:59:15;98554.59;;;22.20;100.00
65897;BME280;52677;50.898;10.854;2023-08-24T10:01:19;98551.63;;;22.23;100.00
65897;BME280;52677;50.898;10.854;2023-08-24T10:03:30;98549.59;;;22.24;100.00
65897;BME280;52677;50.898;10.854;2023-08-24T10:05:32;98541.16;;;22.24;100.00
65897;BME280;52677;50.898;10.854;2023-08-24T10:07:35;98545.91;;;22.27;100.00
65897;BME280;52677;50.898;10.854;2023-08-24T10:09:44;98541.38;;;22.29;100.00
65897;BME280;52677;50.898;10.854;2023-08-24T10:11:50;98534.03;;;22.32;100.00
65897;BME280;52677;50.898;10.854;2023-08-24T10:16:27;98534.69;;;22.36;100.00
65897;BME280;52677;50.898;10.854;2023-08-24T10:18:29;98538.16;;;22.40;100.00
65897;BME280;52677;50.898;10.854;2023-08-24T10:20:29;98534.31;;;22.47;100.00
65897;BME280;52677;50.898;10.854;2023-08-24T10:22:30;98522.19;;;22.59;100.00
65897;BME280;52677;50.898;10.854;2023-08-24T10:24:32;98519.00;;;22.69;100.00
65897;BME280;52677;50.898;10.854;2023-08-24T10:26:33;98511.69;;;22.81;100.00
65897;BME280;52677;50.898;10.854;2023-08-24T10:28:34;98507.06;;;22.87;100.00
65897;BME280;52677;50.898;10.854;2023-08-24T10:30:35;98502.59;;;22.99;100.00